createdAt,value
2018-08-17T00:00:28.025Z,80.87
2018-08-17T00:02:56.500Z,81.18
2018-08-17T00:05:25.055Z,81.06
2018-08-17T00:07:53.470Z,81.57
2018-08-17T00:10:22.072Z,81.80
2018-08-17T00:12:50.623Z,82.70
2018-08-17T00:15:19.622Z,83.06
2018-08-17T00:17:48.117Z,82.90
2018-08-17T00:20:16.695Z,82.94
2018-08-17T00:22:45.337Z,83.19
2018-08-17T00:25:13.868Z,83.69
2018-08-17T00:27:42.533Z,83.73
2018-08-17T00:30:11.238Z,83.49
2018-08-17T00:32:39.732Z,83.60
2018-08-17T00:35:08.206Z,83.92
2018-08-17T00:37:36.772Z,83.88
2018-08-17T00:40:05.398Z,83.57
2018-08-17T00:42:33.996Z,83.26
2018-08-17T00:45:02.521Z,83.07
2018-08-17T00:47:31.104Z,83.04
2018-08-17T00:49:59.600Z,82.71
2018-08-17T00:52:28.174Z,82.94
2018-08-17T00:54:56.678Z,83.08
2018-08-17T00:57:25.159Z,82.35
2018-08-17T00:59:53.740Z,82.19
2018-08-17T01:02:22.329Z,82.31
2018-08-17T01:04:50.915Z,82.40
2018-08-17T01:07:19.488Z,82.22
2018-08-17T01:09:47.923Z,81.40
2018-08-17T01:12:16.453Z,81.23
2018-08-17T01:14:44.940Z,80.96
2018-08-17T01:17:13.417Z,80.64
2018-08-17T01:19:41.879Z,80.40
2018-08-17T01:22:10.369Z,80.38
2018-08-17T01:24:38.834Z,80.16
2018-08-17T01:27:07.262Z,80.29
2018-08-17T01:29:35.700Z,79.79
2018-08-17T01:32:04.325Z,79.78
2018-08-17T01:34:32.753Z,80.05
2018-08-17T01:37:01.243Z,79.65
2018-08-17T01:39:29.747Z,79.67
2018-08-17T01:41:58.264Z,79.67
2018-08-17T01:44:26.838Z,80.16
2018-08-17T01:46:55.384Z,80.12
2018-08-17T01:49:23.805Z,80.21
2018-08-17T01:51:52.361Z,80.10
2018-08-17T01:54:20.830Z,80.23
2018-08-17T01:56:49.317Z,80.44
2018-08-17T01:59:17.833Z,80.26
2018-08-17T02:01:46.381Z,80.11
2018-08-17T02:04:15.808Z,80.41
2018-08-17T02:06:44.392Z,80.65
2018-08-17T02:09:13.276Z,80.13
2018-08-17T02:11:46.732Z,80.71
2018-08-17T02:14:15.234Z,80.73
2018-08-17T02:16:43.725Z,80.34
2018-08-17T02:19:12.233Z,80.76
2018-08-17T02:21:40.905Z,80.81
2018-08-17T02:24:09.489Z,80.23
2018-08-17T02:26:37.978Z,80.83
2018-08-17T02:29:06.766Z,80.76
2018-08-17T02:31:35.344Z,80.49
2018-08-17T02:34:03.900Z,80.64
2018-08-17T02:36:32.398Z,80.73
2018-08-17T02:39:00.883Z,80.47
2018-08-17T02:41:29.461Z,80.58
2018-08-17T02:43:57.951Z,81.61
2018-08-17T02:46:26.521Z,83.08
2018-08-17T02:48:54.998Z,84.25
2018-08-17T02:51:23.535Z,85.34
2018-08-17T02:53:52.225Z,87.00
2018-08-17T02:56:20.751Z,88.85
2018-08-17T02:58:49.297Z,90.18
2018-08-17T03:01:17.839Z,90.38
2018-08-17T03:03:46.277Z,83.84
2018-08-17T03:06:14.700Z,80.93
2018-08-17T03:08:43.176Z,78.78
2018-08-17T03:11:11.638Z,69.50
2018-08-17T03:13:40.179Z,64.29
2018-08-17T03:16:08.738Z,85.77
2018-08-17T03:18:37.193Z,90.88
2018-08-17T03:21:05.823Z,92.72
2018-08-17T03:23:34.377Z,94.11
2018-08-17T03:26:02.824Z,94.91
2018-08-17T03:28:31.305Z,95.42
2018-08-17T03:30:59.755Z,96.68
2018-08-17T03:33:28.206Z,96.28
2018-08-17T03:35:56.652Z,96.95
2018-08-17T03:38:25.174Z,97.44
2018-08-17T03:40:53.794Z,97.71
2018-08-17T03:43:22.370Z,97.61
2018-08-17T03:45:50.949Z,98.72
2018-08-17T03:48:19.495Z,98.55
2018-08-17T03:50:48.070Z,99.77
2018-08-17T03:53:16.574Z,99.79
2018-08-17T03:55:45.056Z,99.37
2018-08-17T03:58:13.558Z,99.14
2018-08-17T04:00:42.118Z,99.96
2018-08-17T04:03:10.589Z,99.91
2018-08-17T04:05:39.049Z,100.00
2018-08-17T04:08:07.656Z,100.00
2018-08-17T04:10:36.135Z,100.00
2018-08-17T04:13:04.864Z,100.00
2018-08-17T04:15:33.563Z,100.00
2018-08-17T04:18:02.090Z,100.00
2018-08-17T04:20:30.694Z,100.00
2018-08-17T04:22:59.361Z,100.00
2018-08-17T04:25:27.842Z,100.00
2018-08-17T04:27:56.361Z,100.00
2018-08-17T04:30:24.922Z,100.00
2018-08-17T04:32:53.379Z,100.00
2018-08-17T04:35:21.916Z,100.00
2018-08-17T04:37:50.482Z,100.00
2018-08-17T04:40:19.102Z,100.00
2018-08-17T04:42:47.632Z,100.00
2018-08-17T04:45:16.128Z,100.00
2018-08-17T04:47:44.706Z,100.00
2018-08-17T04:50:13.175Z,100.00
2018-08-17T04:52:41.578Z,100.00
2018-08-17T04:55:10.198Z,100.00
2018-08-17T04:57:38.885Z,100.00
2018-08-17T05:00:08.714Z,100.00
2018-08-17T05:02:37.531Z,100.00
2018-08-17T05:05:06.943Z,100.00
2018-08-17T05:07:35.625Z,100.00
2018-08-17T05:10:04.644Z,100.00
2018-08-17T05:12:36.390Z,100.00
2018-08-17T05:15:05.303Z,100.00
2018-08-17T05:17:33.962Z,100.00
2018-08-17T05:20:02.449Z,100.00
2018-08-17T05:22:30.889Z,100.00
2018-08-17T05:24:59.383Z,100.00
2018-08-17T05:27:27.876Z,100.00
2018-08-17T05:29:56.414Z,100.00
2018-08-17T05:32:24.982Z,100.00
2018-08-17T05:34:53.534Z,100.00
2018-08-17T05:37:22.101Z,100.00
2018-08-17T05:39:50.621Z,100.00
2018-08-17T05:42:19.271Z,100.00
2018-08-17T05:44:47.804Z,100.00
2018-08-17T05:47:16.486Z,100.00
2018-08-17T05:49:45.026Z,100.00
2018-08-17T05:52:13.519Z,100.00
2018-08-17T05:54:42.043Z,100.00
2018-08-17T05:57:10.598Z,100.00
2018-08-17T05:59:39.176Z,100.00
2018-08-17T06:02:07.805Z,100.00
2018-08-17T06:04:36.322Z,100.00
2018-08-17T06:07:04.914Z,100.00
2018-08-17T06:09:33.386Z,100.00
2018-08-17T06:12:02.036Z,100.00
2018-08-17T06:14:30.656Z,100.00
2018-08-17T06:17:01.212Z,100.00
2018-08-17T06:19:29.826Z,100.00
2018-08-17T06:21:58.281Z,100.00
2018-08-17T06:24:26.733Z,100.00
2018-08-17T06:26:55.289Z,100.00
2018-08-17T06:29:23.874Z,100.00
2018-08-17T06:31:52.409Z,100.00
2018-08-17T06:34:20.890Z,100.00
2018-08-17T06:36:49.374Z,100.00
2018-08-17T06:39:17.863Z,100.00
2018-08-17T06:41:46.408Z,100.00
2018-08-17T06:44:15.003Z,100.00
2018-08-17T06:46:43.504Z,100.00
2018-08-17T06:49:12.012Z,100.00
2018-08-17T06:51:40.484Z,100.00
2018-08-17T06:54:09.025Z,100.00
2018-08-17T06:56:37.529Z,100.00
2018-08-17T06:59:06.353Z,100.00
2018-08-17T07:01:34.909Z,100.00
2018-08-17T07:04:03.513Z,100.00
2018-08-17T07:06:32.082Z,100.00
2018-08-17T07:09:00.616Z,100.00
2018-08-17T07:11:29.177Z,100.00
2018-08-17T07:13:57.753Z,100.00
2018-08-17T07:16:26.329Z,100.00
2018-08-17T07:18:54.940Z,100.00
2018-08-17T07:21:23.467Z,100.00
2018-08-17T07:23:51.970Z,100.00
2018-08-17T07:26:20.690Z,100.00
2018-08-17T07:28:49.122Z,100.00
2018-08-17T07:31:17.623Z,100.00
2018-08-17T07:33:46.076Z,100.00
2018-08-17T07:36:14.711Z,100.00
2018-08-17T07:39:00.837Z,100.00
2018-08-17T07:41:29.470Z,100.00
2018-08-17T07:43:57.933Z,100.00
2018-08-17T07:46:26.381Z,100.00
2018-08-17T07:48:54.935Z,100.00
2018-08-17T07:51:23.491Z,100.00
2018-08-17T07:53:52.114Z,100.00
2018-08-17T07:56:20.679Z,100.00
2018-08-17T07:58:49.344Z,100.00
2018-08-17T08:01:17.811Z,100.00
2018-08-17T08:03:46.389Z,100.00
2018-08-17T08:06:14.973Z,100.00
2018-08-17T08:08:43.456Z,100.00
2018-08-17T08:11:11.995Z,100.00
2018-08-17T08:13:40.626Z,100.00
2018-08-17T08:16:09.101Z,100.00
2018-08-17T08:18:47.766Z,100.00
2018-08-17T08:21:16.318Z,100.00
2018-08-17T08:23:44.933Z,100.00
2018-08-17T08:26:13.524Z,100.00
2018-08-17T08:28:47.711Z,100.00
2018-08-17T08:31:16.299Z,100.00
2018-08-17T08:33:44.768Z,100.00
2018-08-17T08:36:13.281Z,100.00
2018-08-17T08:38:41.864Z,100.00
2018-08-17T08:41:10.372Z,100.00
2018-08-17T08:43:38.914Z,100.00
2018-08-17T08:46:07.488Z,100.00
2018-08-17T08:48:36.072Z,100.00
2018-08-17T08:51:04.563Z,100.00
2018-08-17T08:53:33.035Z,100.00
2018-08-17T08:56:01.799Z,100.00
2018-08-17T08:58:30.328Z,100.00
2018-08-17T09:00:58.892Z,100.00
2018-08-17T09:03:27.367Z,100.00
2018-08-17T09:05:55.857Z,100.00
2018-08-17T09:08:24.454Z,100.00
2018-08-17T09:10:53.075Z,100.00
2018-08-17T09:13:21.651Z,100.00
2018-08-17T09:15:50.278Z,100.00
2018-08-17T09:18:18.883Z,100.00
2018-08-17T09:20:47.651Z,100.00
2018-08-17T09:23:16.149Z,100.00
2018-08-17T09:25:44.805Z,100.00
2018-08-17T09:28:22.243Z,100.00
2018-08-17T09:30:50.804Z,100.00
2018-08-17T09:33:19.314Z,99.59
2018-08-17T09:35:47.872Z,99.71
2018-08-17T09:38:16.369Z,100.00
2018-08-17T09:40:44.866Z,98.77
2018-08-17T09:43:13.315Z,98.20
2018-08-17T09:45:41.903Z,97.71
2018-08-17T09:48:10.516Z,96.94
2018-08-17T09:50:39.071Z,97.22
2018-08-17T09:53:07.660Z,95.13
2018-08-17T09:55:36.227Z,95.12
2018-08-17T09:58:04.716Z,94.80
2018-08-17T10:00:39.108Z,93.89
2018-08-17T10:03:08.692Z,93.40
2018-08-17T10:05:40.333Z,92.81
2018-08-17T10:08:14.097Z,91.57
2018-08-17T10:10:43.377Z,92.11
2018-08-17T10:13:11.980Z,91.44
2018-08-17T10:15:40.622Z,91.26
2018-08-17T10:18:09.615Z,90.00
2018-08-17T10:20:38.115Z,89.86
2018-08-17T10:23:16.313Z,89.04
2018-08-17T10:25:44.877Z,88.94
2018-08-17T10:28:13.429Z,87.43
2018-08-17T10:30:41.897Z,85.61
2018-08-17T10:33:10.434Z,85.71
2018-08-17T10:35:39.093Z,85.87
2018-08-17T10:38:08.380Z,86.00
2018-08-17T10:40:37.029Z,85.70
2018-08-17T10:43:07.086Z,84.73
2018-08-17T10:45:35.600Z,84.35
2018-08-17T10:48:04.351Z,83.70
2018-08-17T10:50:34.691Z,83.11
2018-08-17T10:53:04.427Z,83.44
2018-08-17T10:55:42.738Z,83.84
2018-08-17T10:58:14.918Z,81.82
2018-08-17T11:00:43.434Z,81.62
2018-08-17T11:03:12.112Z,80.15
2018-08-17T11:05:40.723Z,80.62
2018-08-17T11:08:17.178Z,80.99
2018-08-17T11:10:45.675Z,79.32
2018-08-17T11:13:14.170Z,78.17
2018-08-17T11:15:42.758Z,76.89
2018-08-17T11:18:11.406Z,75.99
2018-08-17T11:20:39.911Z,75.95
2018-08-17T11:23:08.373Z,76.54
2018-08-17T11:25:36.868Z,74.58
2018-08-17T11:28:05.464Z,74.37
2018-08-17T11:30:33.941Z,73.00
2018-08-17T11:33:02.516Z,71.88
2018-08-17T11:35:31.124Z,73.47
2018-08-17T11:37:59.636Z,72.70
2018-08-17T11:40:28.192Z,71.16
2018-08-17T11:42:56.859Z,72.21
2018-08-17T11:45:26.457Z,71.41
2018-08-17T11:47:55.900Z,69.88
2018-08-17T11:50:25.446Z,69.19
2018-08-17T11:52:55.184Z,67.72
2018-08-17T11:55:24.904Z,65.94
2018-08-17T11:57:53.490Z,66.18
2018-08-17T12:00:22.210Z,65.31
2018-08-17T12:02:50.741Z,63.95
2018-08-17T12:05:19.416Z,63.57
2018-08-17T12:07:48.442Z,62.40
2018-08-17T12:10:17.013Z,61.70
2018-08-17T12:13:08.789Z,60.29
2018-08-17T12:15:42.314Z,62.84
2018-08-17T12:18:11.267Z,60.16
2018-08-17T12:20:39.896Z,59.84
2018-08-17T12:23:08.431Z,59.34
2018-08-17T12:25:43.702Z,56.49
2018-08-17T12:28:36.897Z,56.77
2018-08-17T12:31:05.644Z,55.44
2018-08-17T12:33:34.210Z,53.27
2018-08-17T12:36:02.732Z,52.10
2018-08-17T12:38:31.229Z,51.01
2018-08-17T12:40:59.775Z,49.62
2018-08-17T12:43:33.618Z,48.59
2018-08-17T12:46:02.189Z,49.42
2018-08-17T12:48:30.673Z,49.83
2018-08-17T12:51:06.392Z,50.32
2018-08-17T12:53:34.913Z,47.99
2018-08-17T12:56:03.430Z,48.85
2018-08-17T12:58:51.657Z,46.55
2018-08-17T13:01:20.138Z,47.44
2018-08-17T13:03:48.706Z,46.68
2018-08-17T13:06:38.212Z,48.50
2018-08-17T13:09:07.590Z,47.57
2018-08-17T13:11:42.043Z,46.55
2018-08-17T13:14:12.637Z,45.33
2018-08-17T13:16:42.668Z,43.87
2018-08-17T13:19:11.154Z,43.52
2018-08-17T13:21:39.624Z,43.05
2018-08-17T13:24:08.522Z,43.75
2018-08-17T13:26:37.122Z,41.26
2018-08-17T13:29:05.808Z,41.85
2018-08-17T13:31:34.464Z,43.55
2018-08-17T13:34:02.971Z,45.01
2018-08-17T13:36:31.675Z,46.52
2018-08-17T13:39:00.328Z,45.69
2018-08-17T13:41:28.883Z,44.18
2018-08-17T13:43:57.372Z,42.89
2018-08-17T13:46:26.049Z,43.77
2018-08-17T13:48:55.137Z,44.10
2018-08-17T13:51:23.608Z,42.13
2018-08-17T13:53:52.164Z,42.69
2018-08-17T13:56:20.738Z,43.82
2018-08-17T13:58:49.295Z,44.63
2018-08-17T14:01:17.765Z,44.70
2018-08-17T14:03:46.374Z,42.89
2018-08-17T14:06:14.890Z,43.10
2018-08-17T14:08:43.418Z,42.88
2018-08-17T14:11:12.119Z,45.28
2018-08-17T14:13:40.983Z,45.98
2018-08-17T14:16:09.734Z,44.49
2018-08-17T14:18:46.903Z,43.94
2018-08-17T14:21:15.422Z,43.48
2018-08-17T14:23:43.938Z,43.49
2018-08-17T14:26:12.796Z,43.43
2018-08-17T14:28:42.418Z,41.90
2018-08-17T14:31:10.919Z,40.60
2018-08-17T14:33:39.541Z,42.67
2018-08-17T14:36:08.611Z,41.83
2018-08-17T14:38:37.737Z,40.89
2018-08-17T14:41:06.545Z,41.31
2018-08-17T14:43:35.268Z,42.67
2018-08-17T14:46:03.770Z,41.78
2018-08-17T14:48:32.522Z,42.15
2018-08-17T14:51:01.111Z,41.67
2018-08-17T14:53:29.596Z,40.63
2018-08-17T14:55:58.093Z,40.01
2018-08-17T14:58:26.560Z,42.30
2018-08-17T15:00:55.162Z,42.36
2018-08-17T15:03:45.746Z,43.53
2018-08-17T15:06:14.437Z,41.79
2018-08-17T15:08:42.894Z,41.46
2018-08-17T15:11:11.377Z,40.93
2018-08-17T15:13:40.081Z,42.86
2018-08-17T15:16:09.736Z,43.22
2018-08-17T15:18:38.252Z,42.85
2018-08-17T15:21:07.004Z,43.79
2018-08-17T15:23:35.534Z,43.21
2018-08-17T15:26:04.149Z,42.10
2018-08-17T15:28:32.686Z,43.19
2018-08-17T15:31:01.207Z,43.34
2018-08-17T15:33:29.912Z,43.29
2018-08-17T15:35:58.534Z,44.31
2018-08-17T15:38:27.016Z,43.66
2018-08-17T15:40:55.524Z,42.63
2018-08-17T15:43:24.035Z,43.00
2018-08-17T15:45:52.606Z,44.27
2018-08-17T15:48:21.169Z,44.16
2018-08-17T15:50:49.609Z,43.87
2018-08-17T15:53:18.109Z,42.94
2018-08-17T15:55:46.670Z,43.07
2018-08-17T15:58:15.437Z,42.62
2018-08-17T16:00:44.069Z,41.67
2018-08-17T16:03:12.600Z,42.72
2018-08-17T16:05:41.245Z,42.21
2018-08-17T16:08:09.932Z,42.31
2018-08-17T16:10:38.547Z,40.79
2018-08-17T16:13:07.085Z,40.98
2018-08-17T16:15:35.620Z,41.32
2018-08-17T16:18:04.188Z,41.45
2018-08-17T16:20:32.662Z,41.48
2018-08-17T16:23:01.257Z,41.58
2018-08-17T16:25:29.812Z,42.96
2018-08-17T16:27:58.467Z,42.64
2018-08-17T16:30:26.920Z,42.93
2018-08-17T16:32:55.456Z,43.14
2018-08-17T16:35:24.026Z,43.18
2018-08-17T16:37:52.532Z,43.98
2018-08-17T16:40:20.982Z,44.10
2018-08-17T16:42:51.350Z,43.44
2018-08-17T16:45:36.404Z,45.00
2018-08-17T16:48:05.397Z,45.57
2018-08-17T16:50:33.921Z,45.83
2018-08-17T16:53:02.498Z,46.64
2018-08-17T16:55:31.041Z,47.15
2018-08-17T16:57:59.565Z,47.68
2018-08-17T17:00:28.253Z,48.46
2018-08-17T17:02:56.674Z,49.01
2018-08-17T17:05:25.158Z,51.32
2018-08-17T17:07:53.692Z,50.19
2018-08-17T17:10:23.532Z,48.95
2018-08-17T17:12:52.048Z,49.96
2018-08-17T17:15:20.673Z,50.23
2018-08-17T17:17:57.085Z,49.66
2018-08-17T17:20:26.472Z,49.56
2018-08-17T17:22:55.090Z,49.94
2018-08-17T17:25:23.621Z,50.43
2018-08-17T17:27:52.161Z,50.42
2018-08-17T17:30:20.621Z,51.31
2018-08-17T17:32:49.253Z,51.32
2018-08-17T17:35:17.800Z,51.81
2018-08-17T17:37:46.300Z,51.25
2018-08-17T17:40:14.884Z,50.63
2018-08-17T17:42:43.354Z,50.92
2018-08-17T17:45:11.937Z,52.16
2018-08-17T17:47:40.468Z,54.94
2018-08-17T17:50:09.017Z,57.80
2018-08-17T17:52:37.476Z,57.29
2018-08-17T17:55:05.941Z,59.54
2018-08-17T17:57:34.538Z,60.37
2018-08-17T18:00:03.192Z,60.84
2018-08-17T18:02:31.754Z,60.65
2018-08-17T18:05:01.259Z,61.38
2018-08-17T18:07:39.342Z,61.92
2018-08-17T18:10:08.342Z,61.06
2018-08-17T18:12:54.628Z,60.25
2018-08-17T18:15:23.207Z,60.57
2018-08-17T18:17:51.796Z,60.79
2018-08-17T18:21:07.589Z,61.06
2018-08-17T18:23:36.056Z,62.17
2018-08-17T18:26:09.556Z,63.15
2018-08-17T18:28:38.163Z,63.84
2018-08-17T18:31:09.884Z,64.24
2018-08-17T18:33:38.440Z,64.71
2018-08-17T18:36:07.015Z,65.11
2018-08-17T18:38:35.539Z,65.18
2018-08-17T18:41:04.293Z,66.62
2018-08-17T18:43:32.772Z,67.54
2018-08-17T18:46:01.211Z,67.45
2018-08-17T18:48:30.089Z,68.98
2018-08-17T18:50:58.662Z,69.55
2018-08-17T18:53:27.160Z,70.18
2018-08-17T18:55:55.990Z,70.46
2018-08-17T18:58:24.541Z,71.27
2018-08-17T19:00:53.413Z,71.05
2018-08-17T19:03:21.897Z,70.26
2018-08-17T19:05:50.612Z,70.73
2018-08-17T19:08:19.777Z,71.05
2018-08-17T19:10:48.492Z,71.17
2018-08-17T19:13:17.302Z,74.25
2018-08-17T19:15:50.354Z,75.06
2018-08-17T19:18:19.539Z,75.10
2018-08-17T19:20:48.330Z,76.02
2018-08-17T19:23:17.256Z,75.52
2018-08-17T19:25:46.143Z,75.39
2018-08-17T19:28:14.845Z,75.88
2018-08-17T19:30:50.972Z,76.02
2018-08-17T19:33:19.964Z,76.02
2018-08-17T19:35:49.346Z,75.05
2018-08-17T19:38:18.112Z,74.94
2018-08-17T19:40:46.731Z,75.14
2018-08-17T19:43:15.523Z,74.89
2018-08-17T19:45:44.211Z,74.57
2018-08-17T19:48:30.449Z,75.36
2018-08-17T19:50:59.053Z,75.46
2018-08-17T19:53:27.841Z,75.89
2018-08-17T19:55:56.400Z,75.91
2018-08-17T19:58:25.396Z,75.79
2018-08-17T20:00:53.992Z,77.06
2018-08-17T20:03:22.954Z,77.61
2018-08-17T20:05:51.570Z,77.40
2018-08-17T20:08:20.283Z,76.88
2018-08-17T20:10:48.979Z,76.28
2018-08-17T20:13:17.561Z,76.10
2018-08-17T20:15:46.251Z,75.87
2018-08-17T20:18:14.744Z,76.31
2018-08-17T20:20:43.589Z,76.74
2018-08-17T20:23:12.149Z,77.45
2018-08-17T20:25:41.031Z,77.62
2018-08-17T20:28:09.574Z,77.42
2018-08-17T20:30:38.241Z,76.42
2018-08-17T20:33:15.976Z,77.94
2018-08-17T20:35:44.629Z,78.36
2018-08-17T20:38:13.358Z,77.54
2018-08-17T20:40:42.050Z,77.22
2018-08-17T20:43:10.762Z,77.24
2018-08-17T20:45:39.343Z,77.59
2018-08-17T20:48:08.145Z,76.79
2018-08-17T20:50:36.794Z,76.44
2018-08-17T20:53:05.530Z,76.34
2018-08-17T20:55:34.407Z,75.85
2018-08-17T20:58:38.271Z,76.33
2018-08-17T21:01:06.904Z,77.03
2018-08-17T21:03:35.506Z,76.95
2018-08-17T21:06:04.242Z,76.92
2018-08-17T21:08:32.844Z,77.40
2018-08-17T21:11:01.453Z,77.37
2018-08-17T21:13:30.217Z,78.66
2018-08-17T21:15:58.884Z,78.71
2018-08-17T21:18:27.512Z,78.36
2018-08-17T21:20:56.085Z,78.26
2018-08-17T21:23:24.595Z,78.72
2018-08-17T21:25:53.148Z,78.86
2018-08-17T21:28:21.775Z,78.70
2018-08-17T21:30:50.334Z,79.15
2018-08-17T21:33:19.642Z,79.81
2018-08-17T21:35:48.911Z,79.83
2018-08-17T21:38:17.550Z,79.94
2018-08-17T21:40:46.079Z,80.03
2018-08-17T21:43:14.639Z,80.40
2018-08-17T21:45:46.279Z,80.23
2018-08-17T21:48:19.170Z,80.01
2018-08-17T21:50:48.055Z,80.32
2018-08-17T21:53:16.573Z,80.65
2018-08-17T21:55:45.295Z,80.47
2018-08-17T21:58:14.665Z,81.26
2018-08-17T22:01:06.130Z,81.68
2018-08-17T22:03:36.981Z,82.17
2018-08-17T22:06:05.659Z,82.03
2018-08-17T22:08:34.297Z,82.22
2018-08-17T22:11:02.906Z,82.83
2018-08-17T22:13:36.806Z,83.25
2018-08-17T22:16:05.520Z,83.16
2018-08-17T22:18:34.117Z,83.77
2018-08-17T22:21:02.753Z,83.49
2018-08-17T22:23:31.758Z,83.99
2018-08-17T22:26:00.343Z,83.89
2018-08-17T22:28:28.996Z,84.54
2018-08-17T22:30:57.596Z,84.79
2018-08-17T22:33:26.382Z,84.64
2018-08-17T22:35:54.932Z,85.17
2018-08-17T22:38:23.952Z,85.73
2018-08-17T22:40:52.553Z,86.00
2018-08-17T22:43:21.215Z,86.50
2018-08-17T22:45:49.819Z,87.46
2018-08-17T22:48:50.948Z,87.50
2018-08-17T22:51:19.442Z,87.09
2018-08-17T22:53:48.225Z,87.27
2018-08-17T22:56:16.724Z,87.65
2018-08-17T22:58:48.257Z,87.60
2018-08-17T23:01:17.973Z,87.35
2018-08-17T23:03:53.818Z,87.20
2018-08-17T23:06:23.659Z,87.68
2018-08-17T23:08:52.239Z,87.64
2018-08-17T23:11:29.246Z,87.55
2018-08-17T23:14:00.475Z,87.95
2018-08-17T23:16:29.034Z,88.31
2018-08-17T23:18:57.597Z,88.24
2018-08-17T23:24:47.626Z,88.54
2018-08-17T23:27:16.229Z,88.44
2018-08-17T23:29:44.781Z,89.25
2018-08-17T23:32:13.307Z,88.78
2018-08-17T23:34:41.845Z,88.68
2018-08-17T23:37:10.504Z,88.91
2018-08-17T23:39:39.022Z,88.79
2018-08-17T23:42:07.718Z,88.96
2018-08-17T23:44:36.250Z,89.64
2018-08-17T23:47:05.110Z,89.59
2018-08-17T23:49:33.661Z,89.61
2018-08-17T23:52:02.146Z,89.51
2018-08-17T23:54:30.638Z,89.00
2018-08-17T23:56:59.216Z,89.36
2018-08-17T23:59:28.004Z,89.45
